sensor_id;sensor_type;location;lat;lon;timestamp;temperature;humidity
41944;DHT22;27636;52.610;13.244;2023-05-24T00:00:34;10.80;99.90
41944;DHT22;27636;52.610;13.244;2023-05-24T00:05:38;10.80;99.90
41944;DHT22;27636;52.610;13.244;2023-05-24T00:10:44;10.90;99.90
41944;DHT22;27636;52.610;13.244;2023-05-24T00:15:49;11.00;99.90
41944;DHT22;27636;52.610;13.244;2023-05-24T00:20:52;11.00;99.90
41944;DHT22;27636;52.610;13.244;2023-05-24T00:25:59;11.10;99.90
41944;DHT22;27636;52.610;13.244;2023-05-24T00:31:04;11.00;99.90
41944;DHT22;27636;52.610;13.244;2023-05-24T00:36:09;11.00;99.90
41944;DHT22;27636;52.610;13.244;2023-05-24T00:41:12;11.20;99.90
41944;DHT22;27636;52.610;13.244;2023-05-24T00:46:19;11.10;99.90
41944;DHT22;27636;52.610;13.244;2023-05-24T00:51:25;11.20;99.90
41944;DHT22;27636;52.610;13.244;2023-05-24T00:56:30;11.20;99.90
41944;DHT22;27636;52.610;13.244;2023-05-24T01:01:36;11.10;99.90
41944;DHT22;27636;52.610;13.244;2023-05-24T01:06:41;11.20;99.90
41944;DHT22;27636;52.610;13.244;2023-05-24T01:12:06;11.30;99.90
41944;DHT22;27636;52.610;13.244;2023-05-24T01:17:17;11.10;99.90
41944;DHT22;27636;52.610;13.244;2023-05-24T01:22:48;11.10;99.90
41944;DHT22;27636;52.610;13.244;2023-05-24T01:27:57;11.10;99.90
41944;DHT22;27636;52.610;13.244;2023-05-24T01:33:02;11.10;99.90
41944;DHT22;27636;52.610;13.244;2023-05-24T01:38:06;11.10;99.90
41944;DHT22;27636;52.610;13.244;2023-05-24T01:43:15;11.10;99.90
41944;DHT22;27636;52.610;13.244;2023-05-24T01:48:26;11.10;99.90
41944;DHT22;27636;52.610;13.244;2023-05-24T01:53:38;11.00;99.90
41944;DHT22;27636;52.610;13.244;2023-05-24T01:58:46;11.00;99.90
41944;DHT22;27636;52.610;13.244;2023-05-24T02:03:53;11.00;99.90
41944;DHT22;27636;52.610;13.244;2023-05-24T02:08:57;11.00;99.90
41944;DHT22;27636;52.610;13.244;2023-05-24T02:14:02;11.10;99.90
41944;DHT22;27636;52.610;13.244;2023-05-24T02:19:05;11.00;99.90
41944;DHT22;27636;52.610;13.244;2023-05-24T02:24:09;11.00;99.90
41944;DHT22;27636;52.610;13.244;2023-05-24T02:29:17;11.00;99.90
41944;DHT22;27636;52.610;13.244;2023-05-24T02:34:21;11.00;99.90
41944;DHT22;27636;52.610;13.244;2023-05-24T02:39:25;10.90;99.90
41944;DHT22;27636;52.610;13.244;2023-05-24T02:44:30;11.00;99.90
41944;DHT22;27636;52.610;13.244;2023-05-24T02:49:33;11.00;99.90
41944;DHT22;27636;52.610;13.244;2023-05-24T02:54:37;10.80;99.90
41944;DHT22;27636;52.610;13.244;2023-05-24T02:59:42;10.80;99.90
41944;DHT22;27636;52.610;13.244;2023-05-24T03:04:46;10.60;99.90
41944;DHT22;27636;52.610;13.244;2023-05-24T03:09:50;10.70;99.90
41944;DHT22;27636;52.610;13.244;2023-05-24T03:14:55;10.70;99.90
41944;DHT22;27636;52.610;13.244;2023-05-24T03:19:58;10.70;99.90
41944;DHT22;27636;52.610;13.244;2023-05-24T03:25:02;10.70;99.90
41944;DHT22;27636;52.610;13.244;2023-05-24T03:30:08;10.70;99.90
41944;DHT22;27636;52.610;13.244;2023-05-24T03:35:20;10.70;99.90
41944;DHT22;27636;52.610;13.244;2023-05-24T03:40:24;10.80;99.90
41944;DHT22;27636;52.610;13.244;2023-05-24T03:45:34;10.80;99.90
41944;DHT22;27636;52.610;13.244;2023-05-24T03:50:42;10.90;99.90
41944;DHT22;27636;52.610;13.244;2023-05-24T03:55:46;11.00;99.90
41944;DHT22;27636;52.610;13.244;2023-05-24T04:00:51;11.10;99.90
41944;DHT22;27636;52.610;13.244;2023-05-24T04:05:55;11.00;99.90
41944;DHT22;27636;52.610;13.244;2023-05-24T04:10:59;11.10;99.90
41944;DHT22;27636;52.610;13.244;2023-05-24T04:16:04;11.00;99.90
41944;DHT22;27636;52.610;13.244;2023-05-24T04:21:10;11.10;99.90
41944;DHT22;27636;52.610;13.244;2023-05-24T04:26:14;11.10;99.90
41944;DHT22;27636;52.610;13.244;2023-05-24T04:31:19;11.20;99.90
41944;DHT22;27636;52.610;13.244;2023-05-24T04:36:23;11.10;99.90
41944;DHT22;27636;52.610;13.244;2023-05-24T04:41:27;11.20;99.90
41944;DHT22;27636;52.610;13.244;2023-05-24T04:46:35;11.00;99.90
41944;DHT22;27636;52.610;13.244;2023-05-24T04:51:38;11.30;99.90
41944;DHT22;27636;52.610;13.244;2023-05-24T04:56:42;11.20;99.90
41944;DHT22;27636;52.610;13.244;2023-05-24T05:01:47;11.10;99.90
41944;DHT22;27636;52.610;13.244;2023-05-24T05:06:51;11.10;99.90
41944;DHT22;27636;52.610;13.244;2023-05-24T05:11:54;11.30;99.90
41944;DHT22;27636;52.610;13.244;2023-05-24T05:17:00;11.70;99.90
41944;DHT22;27636;52.610;13.244;2023-05-24T05:22:03;11.80;99.90
41944;DHT22;27636;52.610;13.244;2023-05-24T05:27:07;11.90;99.90
41944;DHT22;27636;52.610;13.244;2023-05-24T05:32:11;11.70;99.90
41944;DHT22;27636;52.610;13.244;2023-05-24T05:37:15;11.60;99.90
41944;DHT22;27636;52.610;13.244;2023-05-24T05:42:18;11.80;99.90
41944;DHT22;27636;52.610;13.244;2023-05-24T05:47:23;11.90;99.90
41944;DHT22;27636;52.610;13.244;2023-05-24T05:52:27;12.00;99.90
41944;DHT22;27636;52.610;13.244;2023-05-24T05:57:30;12.10;99.90
41944;DHT22;27636;52.610;13.244;2023-05-24T06:02:35;12.00;99.90
41944;DHT22;27636;52.610;13.244;2023-05-24T06:07:38;12.40;99.90
41944;DHT22;27636;52.610;13.244;2023-05-24T06:12:42;12.20;99.90
41944;DHT22;27636;52.610;13.244;2023-05-24T06:17:47;12.40;99.90
41944;DHT22;27636;52.610;13.244;2023-05-24T06:22:51;12.40;99.90
41944;DHT22;27636;52.610;13.244;2023-05-24T06:27:55;12.40;99.90
41944;DHT22;27636;52.610;13.244;2023-05-24T06:33:00;12.40;99.90
41944;DHT22;27636;52.610;13.244;2023-05-24T06:38:04;12.70;99.90
41944;DHT22;27636;52.610;13.244;2023-05-24T06:43:08;13.20;99.90
41944;DHT22;27636;52.610;13.244;2023-05-24T06:48:13;13.60;99.90
41944;DHT22;27636;52.610;13.244;2023-05-24T06:53:16;13.00;99.90
41944;DHT22;27636;52.610;13.244;2023-05-24T06:58:20;13.50;99.90
41944;DHT22;27636;52.610;13.244;2023-05-24T07:03:25;13.80;99.90
41944;DHT22;27636;52.610;13.244;2023-05-24T07:08:28;14.10;99.90
41944;DHT22;27636;52.610;13.244;2023-05-24T07:13:32;14.50;99.90
41944;DHT22;27636;52.610;13.244;2023-05-24T07:18:36;14.10;99.90
41944;DHT22;27636;52.610;13.244;2023-05-24T07:23:40;14.30;99.90
41944;DHT22;27636;52.610;13.244;2023-05-24T07:28:43;14.20;99.90
41944;DHT22;27636;52.610;13.244;2023-05-24T07:33:48;14.30;99.90
41944;DHT22;27636;52.610;13.244;2023-05-24T07:38:52;14.30;99.90
41944;DHT22;27636;52.610;13.244;2023-05-24T07:43:55;14.50;99.90
41944;DHT22;27636;52.610;13.244;2023-05-24T07:49:00;14.40;99.90
41944;DHT22;27636;52.610;13.244;2023-05-24T07:54:04;14.50;99.90
41944;DHT22;27636;52.610;13.244;2023-05-24T07:59:07;15.00;99.90
41944;DHT22;27636;52.610;13.244;2023-05-24T08:04:12;15.10;99.90
41944;DHT22;27636;52.610;13.244;2023-05-24T08:09:16;15.00;99.90
41944;DHT22;27636;52.610;13.244;2023-05-24T08:14:19;15.10;99.90
41944;DHT22;27636;52.610;13.244;2023-05-24T08:19:24;15.20;99.90
41944;DHT22;27636;52.610;13.244;2023-05-24T08:24:27;15.40;99.90
41944;DHT22;27636;52.610;13.244;2023-05-24T08:29:31;14.80;99.90
41944;DHT22;27636;52.610;13.244;2023-05-24T08:34:36;14.80;99.90
41944;DHT22;27636;52.610;13.244;2023-05-24T08:39:40;14.60;99.90
41944;DHT22;27636;52.610;13.244;2023-05-24T08:44:47;14.70;99.90
41944;DHT22;27636;52.610;13.244;2023-05-24T08:49:52;14.90;99.90
41944;DHT22;27636;52.610;13.244;2023-05-24T08:54:58;14.80;99.90
41944;DHT22;27636;52.610;13.244;2023-05-24T09:00:01;14.40;99.90
41944;DHT22;27636;52.610;13.244;2023-05-24T09:05:09;14.10;99.90
41944;DHT22;27636;52.610;13.244;2023-05-24T09:10:13;14.20;99.90
41944;DHT22;27636;52.610;13.244;2023-05-24T09:15:17;14.10;99.90
41944;DHT22;27636;52.610;13.244;2023-05-24T09:20:22;14.50;99.90
41944;DHT22;27636;52.610;13.244;2023-05-24T09:25:27;15.00;99.90
41944;DHT22;27636;52.610;13.244;2023-05-24T09:30:31;15.40;99.90
41944;DHT22;27636;52.610;13.244;2023-05-24T09:35:40;16.00;99.80
41944;DHT22;27636;52.610;13.244;2023-05-24T09:40:44;16.40;98.00
41944;DHT22;27636;52.610;13.244;2023-05-24T09:45:48;16.50;96.70
41944;DHT22;27636;52.610;13.244;2023-05-24T09:51:06;18.10;95.30
41944;DHT22;27636;52.610;13.244;2023-05-24T09:56:12;19.10;91.10
41944;DHT22;27636;52.610;13.244;2023-05-24T10:01:17;19.60;89.80
41944;DHT22;27636;52.610;13.244;2023-05-24T10:06:27;17.60;90.30
41944;DHT22;27636;52.610;13.244;2023-05-24T10:11:31;17.10;90.90
41944;DHT22;27636;52.610;13.244;2023-05-24T10:16:35;16.20;92.40
41944;DHT22;27636;52.610;13.244;2023-05-24T10:21:42;15.90;93.20
41944;DHT22;27636;52.610;13.244;2023-05-24T10:26:46;15.80;93.80
41944;DHT22;27636;52.610;13.244;2023-05-24T10:31:52;15.50;94.40
41944;DHT22;27636;52.610;13.244;2023-05-24T10:36:58;15.60;96.00
41944;DHT22;27636;52.610;13.244;2023-05-24T10:42:02;16.30;94.70
41944;DHT22;27636;52.610;13.244;2023-05-24T10:47:10;17.50;91.00
41944;DHT22;27636;52.610;13.244;2023-05-24T10:52:15;18.10;88.90
41944;DHT22;27636;52.610;13.244;2023-05-24T10:57:21;18.60;86.00
41944;DHT22;27636;52.610;13.244;2023-05-24T11:02:27;19.40;82.30
41944;DHT22;27636;52.610;13.244;2023-05-24T11:07:41;19.40;85.80
41944;DHT22;27636;52.610;13.244;2023-05-24T11:12:45;19.00;83.90
41944;DHT22;27636;52.610;13.244;2023-05-24T11:23:16;17.50;87.90
41944;DHT22;27636;52.610;13.244;2023-05-24T11:28:20;18.40;90.00
41944;DHT22;27636;52.610;13.244;2023-05-24T11:33:24;18.80;87.60
41944;DHT22;27636;52.610;13.244;2023-05-24T11:38:30;19.00;83.00
41944;DHT22;27636;52.610;13.244;2023-05-24T11:43:34;20.40;80.70
41944;DHT22;27636;52.610;13.244;2023-05-24T11:48:38;21.20;74.20
41944;DHT22;27636;52.610;13.244;2023-05-24T11:53:46;21.00;73.70
41944;DHT22;27636;52.610;13.244;2023-05-24T11:58:49;22.00;74.10
41944;DHT22;27636;52.610;13.244;2023-05-24T12:03:55;22.00;73.40
41944;DHT22;27636;52.610;13.244;2023-05-24T12:09:00;22.30;70.50
41944;DHT22;27636;52.610;13.244;2023-05-24T12:14:11;20.20;72.30
41944;DHT22;27636;52.610;13.244;2023-05-24T12:19:18;20.00;77.20
41944;DHT22;27636;52.610;13.244;2023-05-24T12:24:37;19.80;74.80
41944;DHT22;27636;52.610;13.244;2023-05-24T12:29:40;19.90;77.10
41944;DHT22;27636;52.610;13.244;2023-05-24T12:34:44;19.60;69.60
41944;DHT22;27636;52.610;13.244;2023-05-24T12:39:49;19.40;73.50
41944;DHT22;27636;52.610;13.244;2023-05-24T12:44:57;19.50;72.10
41944;DHT22;27636;52.610;13.244;2023-05-24T12:50:00;20.00;74.30
41944;DHT22;27636;52.610;13.244;2023-05-24T12:55:06;19.80;71.80
41944;DHT22;27636;52.610;13.244;2023-05-24T13:00:11;19.90;69.50
41944;DHT22;27636;52.610;13.244;2023-05-24T13:05:16;19.30;73.20
41944;DHT22;27636;52.610;13.244;2023-05-24T13:10:21;19.30;76.10
41944;DHT22;27636;52.610;13.244;2023-05-24T13:15:25;20.30;74.00
41944;DHT22;27636;52.610;13.244;2023-05-24T13:20:29;21.50;71.30
41944;DHT22;27636;52.610;13.244;2023-05-24T13:25:34;21.10;69.70
41944;DHT22;27636;52.610;13.244;2023-05-24T13:30:38;19.20;75.50
41944;DHT22;27636;52.610;13.244;2023-05-24T13:35:42;18.60;77.80
41944;DHT22;27636;52.610;13.244;2023-05-24T13:40:48;19.60;76.50
41944;DHT22;27636;52.610;13.244;2023-05-24T13:45:51;21.00;74.30
41944;DHT22;27636;52.610;13.244;2023-05-24T13:50:55;21.40;71.10
41944;DHT22;27636;52.610;13.244;2023-05-24T13:56:00;20.50;68.60
41944;DHT22;27636;52.610;13.244;2023-05-24T14:01:05;21.00;69.10
41944;DHT22;27636;52.610;13.244;2023-05-24T14:06:10;20.60;68.00
41944;DHT22;27636;52.610;13.244;2023-05-24T14:11:15;20.70;69.30
41944;DHT22;27636;52.610;13.244;2023-05-24T14:16:18;21.50;68.20
41944;DHT22;27636;52.610;13.244;2023-05-24T14:21:22;21.90;64.10
41944;DHT22;27636;52.610;13.244;2023-05-24T14:26:27;22.10;65.50
41944;DHT22;27636;52.610;13.244;2023-05-24T14:31:31;21.30;65.00
41944;DHT22;27636;52.610;13.244;2023-05-24T14:36:35;20.70;65.80
41944;DHT22;27636;52.610;13.244;2023-05-24T14:41:42;21.70;65.50
41944;DHT22;27636;52.610;13.244;2023-05-24T14:46:45;21.10;67.00
41944;DHT22;27636;52.610;13.244;2023-05-24T14:51:49;21.40;64.40
41944;DHT22;27636;52.610;13.244;2023-05-24T14:56:54;20.80;65.50
41944;DHT22;27636;52.610;13.244;2023-05-24T15:01:57;20.80;67.70
41944;DHT22;27636;52.610;13.244;2023-05-24T15:07:00;21.00;68.40
41944;DHT22;27636;52.610;13.244;2023-05-24T15:12:06;21.20;67.00
41944;DHT22;27636;52.610;13.244;2023-05-24T15:17:11;21.60;65.70
41944;DHT22;27636;52.610;13.244;2023-05-24T15:22:14;21.90;70.00
41944;DHT22;27636;52.610;13.244;2023-05-24T15:27:19;22.40;64.60
41944;DHT22;27636;52.610;13.244;2023-05-24T15:32:23;21.70;68.70
41944;DHT22;27636;52.610;13.244;2023-05-24T15:37:27;20.10;68.00
41944;DHT22;27636;52.610;13.244;2023-05-24T15:42:32;20.90;67.10
41944;DHT22;27636;52.610;13.244;2023-05-24T15:47:35;20.90;66.00
41944;DHT22;27636;52.610;13.244;2023-05-24T15:52:42;21.60;67.80
41944;DHT22;27636;52.610;13.244;2023-05-24T15:57:47;21.40;68.20
41944;DHT22;27636;52.610;13.244;2023-05-24T16:02:50;21.90;67.80
41944;DHT22;27636;52.610;13.244;2023-05-24T16:07:55;21.80;67.50
41944;DHT22;27636;52.610;13.244;2023-05-24T16:13:00;21.40;68.20
41944;DHT22;27636;52.610;13.244;2023-05-24T16:18:04;21.30;70.10
41944;DHT22;27636;52.610;13.244;2023-05-24T16:23:07;21.30;69.40
41944;DHT22;27636;52.610;13.244;2023-05-24T16:28:12;20.80;70.10
41944;DHT22;27636;52.610;13.244;2023-05-24T16:33:16;20.50;72.30
41944;DHT22;27636;52.610;13.244;2023-05-24T16:38:19;20.10;72.70
41944;DHT22;27636;52.610;13.244;2023-05-24T16:43:24;20.30;70.80
41944;DHT22;27636;52.610;13.244;2023-05-24T16:48:28;19.70;72.50
41944;DHT22;27636;52.610;13.244;2023-05-24T16:53:33;19.50;75.20
41944;DHT22;27636;52.610;13.244;2023-05-24T16:58:38;19.30;74.90
41944;DHT22;27636;52.610;13.244;2023-05-24T17:03:42;19.30;74.10
41944;DHT22;27636;52.610;13.244;2023-05-24T17:08:45;18.70;77.40
41944;DHT22;27636;52.610;13.244;2023-05-24T17:13:50;18.40;76.20
41944;DHT22;27636;52.610;13.244;2023-05-24T17:18:53;17.80;78.80
41944;DHT22;27636;52.610;13.244;2023-05-24T17:23:58;17.90;79.40
41944;DHT22;27636;52.610;13.244;2023-05-24T17:29:03;17.80;79.40
41944;DHT22;27636;52.610;13.244;2023-05-24T17:34:07;17.60;80.30
41944;DHT22;27636;52.610;13.244;2023-05-24T17:39:10;17.40;81.20
41944;DHT22;27636;52.610;13.244;2023-05-24T17:44:15;17.10;82.80
41944;DHT22;27636;52.610;13.244;2023-05-24T17:49:19;16.60;83.90
41944;DHT22;27636;52.610;13.244;2023-05-24T17:54:22;16.30;87.00
41944;DHT22;27636;52.610;13.244;2023-05-24T17:59:27;15.80;90.50
41944;DHT22;27636;52.610;13.244;2023-05-24T18:04:30;15.70;90.30
41944;DHT22;27636;52.610;13.244;2023-05-24T18:09:35;15.40;91.30
41944;DHT22;27636;52.610;13.244;2023-05-24T18:14:40;15.20;92.50
41944;DHT22;27636;52.610;13.244;2023-05-24T18:19:44;15.10;92.80
41944;DHT22;27636;52.610;13.244;2023-05-24T18:24:48;14.80;94.10
41944;DHT22;27636;52.610;13.244;2023-05-24T18:29:53;14.50;94.40
41944;DHT22;27636;52.610;13.244;2023-05-24T18:34:56;14.20;96.50
41944;DHT22;27636;52.610;13.244;2023-05-24T18:40:00;13.90;97.30
41944;DHT22;27636;52.610;13.244;2023-05-24T18:45:06;13.50;99.90
41944;DHT22;27636;52.610;13.244;2023-05-24T18:50:10;13.20;99.90
41944;DHT22;27636;52.610;13.244;2023-05-24T18:55:13;12.90;99.90
41944;DHT22;27636;52.610;13.244;2023-05-24T19:00:19;12.70;99.90
41944;DHT22;27636;52.610;13.244;2023-05-24T19:05:25;12.60;99.90
41944;DHT22;27636;52.610;13.244;2023-05-24T19:10:28;12.40;99.90
41944;DHT22;27636;52.610;13.244;2023-05-24T19:15:34;12.10;99.90
41944;DHT22;27636;52.610;13.244;2023-05-24T19:20:38;11.80;99.90
41944;DHT22;27636;52.610;13.244;2023-05-24T19:25:41;11.70;99.90
41944;DHT22;27636;52.610;13.244;2023-05-24T19:30:47;11.50;99.90
41944;DHT22;27636;52.610;13.244;2023-05-24T19:35:51;11.20;99.90
41944;DHT22;27636;52.610;13.244;2023-05-24T19:40:54;11.00;99.90
41944;DHT22;27636;52.610;13.244;2023-05-24T19:45:59;11.00;99.90
41944;DHT22;27636;52.610;13.244;2023-05-24T19:51:03;10.80;99.90
41944;DHT22;27636;52.610;13.244;2023-05-24T19:56:07;10.70;99.90
41944;DHT22;27636;52.610;13.244;2023-05-24T20:01:12;10.60;99.90
41944;DHT22;27636;52.610;13.244;2023-05-24T20:06:16;10.50;99.90
41944;DHT22;27636;52.610;13.244;2023-05-24T20:11:20;10.30;99.90
41944;DHT22;27636;52.610;13.244;2023-05-24T20:16:26;10.40;99.90
41944;DHT22;27636;52.610;13.244;2023-05-24T20:21:30;10.20;99.90
41944;DHT22;27636;52.610;13.244;2023-05-24T20:26:35;10.20;99.90
41944;DHT22;27636;52.610;13.244;2023-05-24T20:31:40;10.00;99.90
41944;DHT22;27636;52.610;13.244;2023-05-24T20:36:44;9.90;99.90
41944;DHT22;27636;52.610;13.244;2023-05-24T20:41:49;9.90;99.90
41944;DHT22;27636;52.610;13.244;2023-05-24T20:46:54;9.70;99.90
41944;DHT22;27636;52.610;13.244;2023-05-24T20:51:57;9.70;99.90
41944;DHT22;27636;52.610;13.244;2023-05-24T20:57:01;9.50;99.90
41944;DHT22;27636;52.610;13.244;2023-05-24T21:02:06;9.50;99.90
41944;DHT22;27636;52.610;13.244;2023-05-24T21:07:10;9.40;99.90
41944;DHT22;27636;52.610;13.244;2023-05-24T21:12:14;9.40;99.90
41944;DHT22;27636;52.610;13.244;2023-05-24T21:17:18;9.20;99.90
41944;DHT22;27636;52.610;13.244;2023-05-24T21:22:22;9.00;99.90
41944;DHT22;27636;52.610;13.244;2023-05-24T21:27:25;9.00;99.90
41944;DHT22;27636;52.610;13.244;2023-05-24T21:32:31;8.90;99.90
41944;DHT22;27636;52.610;13.244;2023-05-24T21:37:35;9.00;99.90
41944;DHT22;27636;52.610;13.244;2023-05-24T21:42:38;8.90;99.90
41944;DHT22;27636;52.610;13.244;2023-05-24T21:47:43;8.80;99.90
41944;DHT22;27636;52.610;13.244;2023-05-24T21:52:47;8.70;99.90
41944;DHT22;27636;52.610;13.244;2023-05-24T21:57:51;8.70;99.90
41944;DHT22;27636;52.610;13.244;2023-05-24T22:02:57;8.80;99.90
41944;DHT22;27636;52.610;13.244;2023-05-24T22:08:01;8.70;99.90
41944;DHT22;27636;52.610;13.244;2023-05-24T22:13:05;8.70;99.90
41944;DHT22;27636;52.610;13.244;2023-05-24T22:18:10;8.60;99.90
41944;DHT22;27636;52.610;13.244;2023-05-24T22:23:14;8.70;99.90
41944;DHT22;27636;52.610;13.244;2023-05-24T22:28:17;8.60;99.90
41944;DHT22;27636;52.610;13.244;2023-05-24T22:33:23;8.50;99.90
41944;DHT22;27636;52.610;13.244;2023-05-24T22:38:27;8.50;99.90
41944;DHT22;27636;52.610;13.244;2023-05-24T22:43:30;8.30;99.90
41944;DHT22;27636;52.610;13.244;2023-05-24T22:48:35;8.40;99.90
41944;DHT22;27636;52.610;13.244;2023-05-24T22:53:38;8.40;99.90
41944;DHT22;27636;52.610;13.244;2023-05-24T22:58:42;8.30;99.90
41944;DHT22;27636;52.610;13.244;2023-05-24T23:03:47;8.30;99.90
41944;DHT22;27636;52.610;13.244;2023-05-24T23:08:51;8.20;99.90
41944;DHT22;27636;52.610;13.244;2023-05-24T23:13:55;8.30;99.90
41944;DHT22;27636;52.610;13.244;2023-05-24T23:19:03;8.20;99.90
41944;DHT22;27636;52.610;13.244;2023-05-24T23:24:08;8.20;99.90
41944;DHT22;27636;52.610;13.244;2023-05-24T23:29:17;8.20;99.90
41944;DHT22;27636;52.610;13.244;2023-05-24T23:34:21;8.20;99.90
41944;DHT22;27636;52.610;13.244;2023-05-24T23:39:25;8.20;99.90
41944;DHT22;27636;52.610;13.244;2023-05-24T23:44:28;8.00;99.90
41944;DHT22;27636;52.610;13.244;2023-05-24T23:49:34;7.90;99.90
41944;DHT22;27636;52.610;13.244;2023-05-24T23:54:37;8.10;99.90
41944;DHT22;27636;52.610;13.244;2023-05-24T23:59:41;8.20;99.90
